createdAt,value
2018-07-23T00:00:48.526Z,8.67
2018-07-23T00:03:18.681Z,8.70
2018-07-23T00:05:48.038Z,8.83
2018-07-23T00:08:17.331Z,8.30
2018-07-23T00:10:47.274Z,9.10
2018-07-23T00:13:16.454Z,9.53
2018-07-23T00:15:45.857Z,9.37
2018-07-23T00:18:15.276Z,9.70
2018-07-23T00:20:44.848Z,9.13
2018-07-23T00:23:14.459Z,9.00
2018-07-23T00:25:44.110Z,9.07
2018-07-23T00:28:13.772Z,9.53
2018-07-23T00:30:43.388Z,9.50
2018-07-23T00:33:12.994Z,9.70
2018-07-23T00:35:42.666Z,9.47
2018-07-23T00:38:12.281Z,9.43
2018-07-23T00:40:42.664Z,8.70
2018-07-23T00:43:12.410Z,8.80
2018-07-23T00:45:41.976Z,8.63
2018-07-23T00:48:13.327Z,8.33
2018-07-23T00:50:42.877Z,9.20
2018-07-23T00:53:12.420Z,7.77
2018-07-23T00:58:42.453Z,8.90
2018-07-23T01:01:13.391Z,9.17
2018-07-23T01:03:43.372Z,9.27
2018-07-23T01:06:14.850Z,8.97
2018-07-23T01:08:44.379Z,8.90
2018-07-23T01:11:13.978Z,10.23
2018-07-23T01:13:43.790Z,9.77
2018-07-23T01:16:13.488Z,9.93
2018-07-23T01:18:43.149Z,9.20
2018-07-23T01:21:12.957Z,8.93
2018-07-23T01:23:42.872Z,9.93
2018-07-23T01:26:12.729Z,9.33
2018-07-23T01:28:42.502Z,10.77
2018-07-23T01:31:12.629Z,10.53
2018-07-23T01:33:42.416Z,9.27
2018-07-23T01:36:12.239Z,9.17
2018-07-23T01:38:42.059Z,9.67
2018-07-23T01:41:11.761Z,9.97
2018-07-23T01:43:41.501Z,9.30
2018-07-23T01:46:11.373Z,10.50
2018-07-23T01:48:41.085Z,10.00
2018-07-23T01:51:10.758Z,9.53
2018-07-23T01:53:40.707Z,9.33
2018-07-23T01:56:10.972Z,9.60
2018-07-23T01:58:40.873Z,11.03
2018-07-23T02:01:12.703Z,10.47
2018-07-23T02:03:42.834Z,11.03
2018-07-23T02:06:12.460Z,10.50
2018-07-23T02:08:42.416Z,11.03
2018-07-23T02:11:12.180Z,10.37
2018-07-23T02:13:41.881Z,11.37
2018-07-23T02:16:11.470Z,10.73
2018-07-23T02:18:41.025Z,11.23
2018-07-23T02:21:10.728Z,10.30
2018-07-23T02:23:41.560Z,11.10
2018-07-23T02:26:11.776Z,11.07
2018-07-23T02:28:41.322Z,11.90
2018-07-23T02:31:11.384Z,12.43
2018-07-23T02:33:42.285Z,11.20
2018-07-23T02:36:12.429Z,11.53
2018-07-23T02:38:42.421Z,10.47
2018-07-23T02:41:11.928Z,11.60
2018-07-23T02:43:41.537Z,11.33
2018-07-23T02:46:11.471Z,13.20
2018-07-23T02:48:41.459Z,12.10
2018-07-23T02:51:11.320Z,12.57
2018-07-23T02:53:41.946Z,13.37
2018-07-23T02:56:11.625Z,12.90
2018-07-23T02:58:41.531Z,12.93
2018-07-23T03:01:11.210Z,13.73
2018-07-23T03:03:40.855Z,15.33
2018-07-23T03:06:11.013Z,12.83
2018-07-23T03:08:40.990Z,13.47
2018-07-23T03:11:10.636Z,13.00
2018-07-23T03:13:40.462Z,12.80
2018-07-23T03:16:10.240Z,12.97
2018-07-23T03:18:40.656Z,12.50
2018-07-23T03:21:11.427Z,13.93
2018-07-23T03:23:41.212Z,12.50
2018-07-23T03:26:10.914Z,12.00
2018-07-23T03:28:40.997Z,10.97
2018-07-23T03:31:10.775Z,12.67
2018-07-23T03:33:40.501Z,12.77
2018-07-23T03:36:10.451Z,13.77
2018-07-23T03:38:40.452Z,12.83
2018-07-23T03:41:10.780Z,12.03
2018-07-23T03:43:41.232Z,13.07
2018-07-23T03:46:11.393Z,13.83
2018-07-23T03:48:41.178Z,13.37
2018-07-23T03:51:11.022Z,13.70
2018-07-23T03:53:41.100Z,13.57
2018-07-23T03:56:11.342Z,14.13
2018-07-23T03:58:41.405Z,12.90
2018-07-23T04:01:11.053Z,13.90
2018-07-23T04:03:40.557Z,12.03
2018-07-23T04:06:10.382Z,12.60
2018-07-23T04:08:40.691Z,11.83
2018-07-23T04:11:10.399Z,12.83
2018-07-23T04:13:41.040Z,12.70
2018-07-23T04:16:10.748Z,11.60
2018-07-23T04:18:40.337Z,13.50
2018-07-23T04:21:10.171Z,12.77
2018-07-23T04:23:40.007Z,11.90
2018-07-23T04:26:09.588Z,11.13
2018-07-23T04:28:39.532Z,10.80
2018-07-23T04:31:09.500Z,11.90
2018-07-23T04:33:39.236Z,10.47
2018-07-23T04:36:09.559Z,10.50
2018-07-23T04:38:39.317Z,10.87
2018-07-23T04:41:09.075Z,9.63
2018-07-23T04:43:38.784Z,9.13
2018-07-23T04:46:08.733Z,9.37
2018-07-23T04:48:38.955Z,9.20
2018-07-23T04:51:09.088Z,9.90
2018-07-23T04:53:38.729Z,9.60
2018-07-23T04:56:08.611Z,11.00
2018-07-23T04:58:38.866Z,9.60
2018-07-23T05:01:09.068Z,9.10
2018-07-23T05:03:39.655Z,9.50
2018-07-23T05:06:09.668Z,9.63
2018-07-23T05:08:39.558Z,8.20
2018-07-23T05:11:09.283Z,8.97
2018-07-23T05:13:40.243Z,7.83
2018-07-23T05:16:10.343Z,8.10
2018-07-23T05:18:40.093Z,8.83
2018-07-23T05:21:12.839Z,8.43
2018-07-23T05:23:42.586Z,8.60
2018-07-23T05:26:12.123Z,8.27
2018-07-23T05:28:41.922Z,7.87
2018-07-23T05:31:11.608Z,7.70
2018-07-23T05:33:41.851Z,7.40
2018-07-23T05:36:12.132Z,8.07
2018-07-23T05:38:42.374Z,7.43
2018-07-23T05:41:12.174Z,6.10
2018-07-23T05:43:43.413Z,7.23
2018-07-23T05:46:13.283Z,7.63
2018-07-23T05:48:43.275Z,6.20
2018-07-23T05:51:13.610Z,6.60
2018-07-23T05:53:43.638Z,6.20
2018-07-23T05:56:13.559Z,6.80
2018-07-23T05:58:43.825Z,6.27
2018-07-23T06:01:14.213Z,5.67
2018-07-23T06:03:44.631Z,6.90
2018-07-23T06:06:14.697Z,6.93
2018-07-23T06:08:44.963Z,5.80
2018-07-23T06:11:15.090Z,6.83
2018-07-23T06:13:45.866Z,7.17
2018-07-23T06:16:16.881Z,7.10
2018-07-23T06:18:46.676Z,7.17
2018-07-23T06:21:16.730Z,7.50
2018-07-23T06:23:46.951Z,7.07
2018-07-23T06:26:16.580Z,6.80
2018-07-23T06:28:46.385Z,7.27
2018-07-23T06:31:16.510Z,6.80
2018-07-23T06:33:46.107Z,6.70
2018-07-23T06:36:17.101Z,6.67
2018-07-23T06:38:46.968Z,7.73
2018-07-23T06:41:17.070Z,6.87
2018-07-23T06:43:47.024Z,6.60
2018-07-23T06:46:16.804Z,6.43
2018-07-23T06:48:46.739Z,6.57
2018-07-23T06:51:16.459Z,5.87
2018-07-23T06:53:46.342Z,6.90
2018-07-23T06:56:16.080Z,7.13
2018-07-23T06:58:46.097Z,6.33
2018-07-23T07:01:15.934Z,6.30
2018-07-23T07:03:46.060Z,7.33
2018-07-23T07:06:16.139Z,7.00
2018-07-23T07:08:46.194Z,6.97
2018-07-23T07:11:15.929Z,7.87
2018-07-23T07:13:45.880Z,6.47
2018-07-23T07:16:15.373Z,6.63
2018-07-23T07:18:45.222Z,5.33
2018-07-23T07:21:14.914Z,5.10
2018-07-23T07:23:44.691Z,6.03
2018-07-23T07:26:14.240Z,6.40
2018-07-23T07:28:44.622Z,5.43
2018-07-23T07:31:14.354Z,4.80
2018-07-23T07:33:45.499Z,5.10
2018-07-23T07:36:15.577Z,4.60
2018-07-23T07:38:45.393Z,5.40
2018-07-23T07:41:15.546Z,5.23
2018-07-23T07:43:45.079Z,3.63
2018-07-23T07:46:14.809Z,3.47
2018-07-23T07:48:45.373Z,3.43
2018-07-23T07:51:15.081Z,3.77
2018-07-23T07:53:44.632Z,4.33
2018-07-23T07:56:14.498Z,4.50
2018-07-23T07:58:44.129Z,4.60
2018-07-23T08:01:14.047Z,4.23
2018-07-23T08:03:43.700Z,4.17
2018-07-23T08:06:13.404Z,5.07
2018-07-23T08:08:43.453Z,5.07
2018-07-23T08:11:13.126Z,4.57
2018-07-23T08:13:42.801Z,4.87
2018-07-23T08:16:12.646Z,5.03
2018-07-23T08:18:42.731Z,4.80
2018-07-23T08:21:12.579Z,5.63
2018-07-23T08:23:42.360Z,4.63
2018-07-23T08:26:12.496Z,4.93
2018-07-23T08:28:42.508Z,4.97
2018-07-23T08:31:12.311Z,4.57
2018-07-23T08:33:42.237Z,4.37
2018-07-23T08:36:12.155Z,4.80
2018-07-23T08:38:41.934Z,5.30
2018-07-23T08:41:11.788Z,6.30
2018-07-23T08:43:42.219Z,5.60
2018-07-23T08:46:12.537Z,5.90
2018-07-23T08:48:42.475Z,5.93
2018-07-23T08:51:12.350Z,4.10
2018-07-23T08:53:42.874Z,4.70
2018-07-23T08:56:13.028Z,4.70
2018-07-23T08:58:42.826Z,4.30
2018-07-23T09:01:12.933Z,4.93
2018-07-23T09:03:43.355Z,5.70
2018-07-23T09:06:13.371Z,4.07
2018-07-23T09:08:43.465Z,4.37
2018-07-23T09:11:13.221Z,5.97
2018-07-23T09:13:43.325Z,4.90
2018-07-23T09:16:13.254Z,4.90
2018-07-23T09:18:43.049Z,5.07
2018-07-23T09:21:13.475Z,4.87
2018-07-23T09:23:43.710Z,4.50
2018-07-23T09:26:13.628Z,4.20
2018-07-23T09:28:43.469Z,3.77
2018-07-23T09:31:13.884Z,3.80
2018-07-23T09:33:43.602Z,4.90
2018-07-23T09:36:13.722Z,4.23
2018-07-23T09:38:43.297Z,4.87
2018-07-23T09:41:13.320Z,4.00
2018-07-23T09:43:43.609Z,4.73
2018-07-23T09:46:14.491Z,4.07
2018-07-23T09:48:44.207Z,4.63
2018-07-23T09:51:16.180Z,4.73
2018-07-23T09:53:46.004Z,5.17
2018-07-23T09:56:15.672Z,4.17
2018-07-23T09:58:45.532Z,4.20
2018-07-23T10:01:19.899Z,4.00
2018-07-23T10:03:49.927Z,4.20
2018-07-23T10:06:19.849Z,3.97
2018-07-23T10:08:49.728Z,4.43
2018-07-23T10:11:19.554Z,4.63
2018-07-23T10:13:49.100Z,3.80
2018-07-23T10:16:18.796Z,4.03
2018-07-23T10:18:48.552Z,4.00
2018-07-23T10:21:19.050Z,3.93
2018-07-23T10:23:49.333Z,4.33
2018-07-23T10:26:18.887Z,3.93
2018-07-23T10:28:48.560Z,4.80
2018-07-23T10:31:18.506Z,4.00
2018-07-23T10:33:48.337Z,4.17
2018-07-23T10:36:18.469Z,3.83
2018-07-23T10:38:49.284Z,4.17
2018-07-23T10:41:19.258Z,4.07
2018-07-23T10:43:49.138Z,4.50
2018-07-23T10:46:19.229Z,4.30
2018-07-23T10:48:49.451Z,4.07
2018-07-23T10:51:19.478Z,5.10
2018-07-23T10:53:49.497Z,4.43
2018-07-23T10:56:19.407Z,5.57
2018-07-23T10:58:49.319Z,4.20
2018-07-23T11:01:19.225Z,4.47
2018-07-23T11:03:48.927Z,4.17
2018-07-23T11:06:18.681Z,3.93
2018-07-23T11:08:48.524Z,4.20
2018-07-23T11:11:18.150Z,4.10
2018-07-23T11:13:48.658Z,3.73
2018-07-23T11:16:18.873Z,4.40
2018-07-23T11:18:49.328Z,4.43
2018-07-23T11:21:19.466Z,4.03
2018-07-23T11:23:49.393Z,4.93
2018-07-23T11:26:20.058Z,4.63
2018-07-23T11:28:49.803Z,5.17
2018-07-23T11:31:19.585Z,4.57
2018-07-23T11:33:49.965Z,4.20
2018-07-23T11:36:19.825Z,4.20
2018-07-23T11:38:49.868Z,4.30
2018-07-23T11:41:19.479Z,4.03
2018-07-23T11:43:49.407Z,4.30
2018-07-23T11:46:24.984Z,3.90
2018-07-23T11:48:49.107Z,4.17
2018-07-23T11:51:18.853Z,4.50
2018-07-23T11:53:48.516Z,5.03
2018-07-23T11:56:18.128Z,4.40
2018-07-23T11:58:47.758Z,4.80
2018-07-23T12:01:17.706Z,4.70
2018-07-23T12:03:47.432Z,4.80
2018-07-23T12:06:17.974Z,3.93
2018-07-23T12:08:48.598Z,4.07
2018-07-23T12:11:19.782Z,3.93
2018-07-23T12:13:50.076Z,4.47
2018-07-23T12:16:20.512Z,3.57
2018-07-23T12:18:50.282Z,3.80
2018-07-23T12:21:19.713Z,4.10
2018-07-23T12:23:49.739Z,3.87
2018-07-23T12:26:19.589Z,3.40
2018-07-23T12:28:49.898Z,3.33
2018-07-23T12:31:19.813Z,3.20
2018-07-23T12:33:49.641Z,3.97
2018-07-23T12:36:19.448Z,3.53
2018-07-23T12:38:49.183Z,3.00
2018-07-23T12:41:18.993Z,3.50
2018-07-23T12:43:49.615Z,2.93
2018-07-23T12:46:20.026Z,2.83
2018-07-23T12:48:49.804Z,2.63
2018-07-23T12:51:19.896Z,3.20
2018-07-23T12:53:49.924Z,3.13
2018-07-23T12:56:21.071Z,3.83
2018-07-23T12:58:50.745Z,3.30
2018-07-23T13:01:19.965Z,3.43
2018-07-23T13:03:49.732Z,3.67
2018-07-23T13:06:19.462Z,3.27
2018-07-23T13:08:52.293Z,3.13
2018-07-23T13:11:21.865Z,3.80
2018-07-23T13:13:51.312Z,3.80
2018-07-23T13:16:21.025Z,4.10
2018-07-23T13:18:50.785Z,3.27
2018-07-23T13:21:20.351Z,3.50
2018-07-23T13:23:49.894Z,3.67
2018-07-23T13:26:19.875Z,4.20
2018-07-23T13:28:49.764Z,3.20
2018-07-23T13:31:19.513Z,3.60
2018-07-23T13:33:54.766Z,3.27
2018-07-23T13:36:25.244Z,3.17
2018-07-23T13:38:54.685Z,3.33
2018-07-23T13:41:24.406Z,3.10
2018-07-23T13:43:53.731Z,2.80
2018-07-23T13:46:23.303Z,3.20
2018-07-23T13:48:52.792Z,3.10
2018-07-23T13:51:22.206Z,3.90
2018-07-23T13:53:52.292Z,3.50
2018-07-23T13:56:21.692Z,2.73
2018-07-23T13:58:51.098Z,3.30
2018-07-23T14:01:20.648Z,3.20
2018-07-23T14:03:50.097Z,3.40
2018-07-23T14:06:20.006Z,3.07
2018-07-23T14:08:49.664Z,3.20
2018-07-23T14:11:19.643Z,3.30
2018-07-23T14:13:49.344Z,3.10
2018-07-23T14:16:18.907Z,3.07
2018-07-23T14:18:48.932Z,3.63
2018-07-23T14:21:18.657Z,2.70
2018-07-23T14:23:48.880Z,3.23
2018-07-23T14:26:18.933Z,2.77
2018-07-23T14:28:48.885Z,2.63
2018-07-23T14:31:18.600Z,2.93
2018-07-23T14:33:48.343Z,2.90
2018-07-23T14:36:18.201Z,2.80
2018-07-23T14:38:47.987Z,2.93
2018-07-23T14:41:17.855Z,3.30
2018-07-23T14:43:47.438Z,2.90
2018-07-23T14:46:17.195Z,2.73
2018-07-23T14:48:46.979Z,3.37
2018-07-23T14:51:16.697Z,3.00
2018-07-23T14:53:46.388Z,3.10
2018-07-23T14:56:16.481Z,4.00
2018-07-23T14:58:46.245Z,3.20
2018-07-23T15:01:17.069Z,2.73
2018-07-23T15:03:47.824Z,2.87
2018-07-23T15:06:18.747Z,3.00
2018-07-23T15:08:48.728Z,3.20
2018-07-23T15:11:18.780Z,3.13
2018-07-23T15:13:49.062Z,2.93
2018-07-23T15:16:18.952Z,2.70
2018-07-23T15:18:48.710Z,3.10
2018-07-23T15:21:19.383Z,3.20
2018-07-23T15:27:03.873Z,3.40
2018-07-23T15:29:33.373Z,2.50
2018-07-23T15:32:03.891Z,3.30
2018-07-23T15:34:33.233Z,2.63
2018-07-23T15:37:02.837Z,3.00
2018-07-23T15:39:32.236Z,2.73
2018-07-23T15:42:02.306Z,2.70
2018-07-23T15:44:32.187Z,3.47
2018-07-23T15:47:01.583Z,3.33
2018-07-23T15:49:31.231Z,3.27
2018-07-23T15:52:00.722Z,3.40
2018-07-23T15:54:29.960Z,2.57
2018-07-23T15:56:59.247Z,3.00
2018-07-23T15:59:28.549Z,3.30
2018-07-23T16:01:58.059Z,3.23
2018-07-23T16:04:27.525Z,3.20
2018-07-23T16:06:56.885Z,3.27
2018-07-23T16:09:26.284Z,2.63
2018-07-23T16:11:55.620Z,3.40
2018-07-23T16:14:26.103Z,3.20
2018-07-23T16:16:55.382Z,3.60
2018-07-23T16:19:25.212Z,3.37
2018-07-23T16:21:55.118Z,3.20
2018-07-23T16:24:24.554Z,2.87
2018-07-23T16:27:57.505Z,3.20
2018-07-23T16:30:26.805Z,3.93
2018-07-23T16:32:56.307Z,3.00
2018-07-23T16:35:26.474Z,3.93
2018-07-23T16:37:56.094Z,3.50
2018-07-23T16:40:25.384Z,3.93
2018-07-23T16:42:55.936Z,2.97
2018-07-23T16:45:25.279Z,3.33
2018-07-23T16:47:55.090Z,3.60
2018-07-23T16:50:24.610Z,3.90
2018-07-23T16:52:54.153Z,3.30
2018-07-23T16:55:23.578Z,3.93
2018-07-23T16:57:53.434Z,3.70
2018-07-23T17:00:22.770Z,4.83
2018-07-23T17:02:52.239Z,3.77
2018-07-23T17:05:23.264Z,4.50
2018-07-23T17:07:53.167Z,4.80
2018-07-23T17:10:22.703Z,3.97
2018-07-23T17:12:52.658Z,4.20
2018-07-23T17:15:22.350Z,4.33
2018-07-23T17:17:51.999Z,4.03
2018-07-23T17:20:22.008Z,4.20
2018-07-23T17:22:51.308Z,4.50
2018-07-23T17:25:20.611Z,4.33
2018-07-23T17:27:50.566Z,4.30
2018-07-23T17:30:19.952Z,4.43
2018-07-23T17:32:49.649Z,4.03
2018-07-23T17:35:19.536Z,3.67
2018-07-23T17:37:48.963Z,4.10
2018-07-23T17:40:18.766Z,5.00
2018-07-23T17:42:48.581Z,4.40
2018-07-23T17:45:18.857Z,4.70
2018-07-23T17:47:48.526Z,4.63
2018-07-23T17:50:17.949Z,4.40
2018-07-23T17:52:47.675Z,4.73
2018-07-23T17:55:17.265Z,4.10
2018-07-23T17:57:47.125Z,4.60
2018-07-23T18:00:16.786Z,4.30
2018-07-23T18:02:46.448Z,4.17
2018-07-23T18:05:16.910Z,4.43
2018-07-23T18:07:46.754Z,3.47
2018-07-23T18:10:16.189Z,4.40
2018-07-23T18:12:45.975Z,4.50
2018-07-23T18:15:17.145Z,3.83
2018-07-23T18:17:46.767Z,4.57
2018-07-23T18:20:16.528Z,4.47
2018-07-23T18:22:46.154Z,4.73
2018-07-23T18:25:16.699Z,4.17
2018-07-23T18:27:46.719Z,4.03
2018-07-23T18:30:16.772Z,4.53
2018-07-23T18:32:48.222Z,4.50
2018-07-23T18:35:18.010Z,4.60
2018-07-23T18:37:48.171Z,4.60
2018-07-23T18:40:18.892Z,3.90
2018-07-23T18:42:49.106Z,4.40
2018-07-23T18:45:19.252Z,4.17
2018-07-23T18:47:49.557Z,4.20
2018-07-23T18:50:20.240Z,4.40
2018-07-23T18:52:51.152Z,5.10
2018-07-23T18:55:21.916Z,5.40
2018-07-23T18:57:52.360Z,4.30
2018-07-23T19:00:23.868Z,4.00
2018-07-23T19:02:54.313Z,4.90
2018-07-23T19:05:24.033Z,4.27
2018-07-23T19:07:53.737Z,4.57
2018-07-23T19:10:23.327Z,3.97
2018-07-23T19:12:53.301Z,3.60
2018-07-23T19:15:22.946Z,4.83
2018-07-23T19:17:52.631Z,3.97
2018-07-23T19:20:22.427Z,4.93
2018-07-23T19:22:52.237Z,4.97
2018-07-23T19:25:22.401Z,4.30
2018-07-23T19:27:51.820Z,4.50
2018-07-23T19:30:21.544Z,3.60
2018-07-23T19:32:51.231Z,4.53
2018-07-23T19:35:21.312Z,4.60
2018-07-23T19:37:50.727Z,4.53
2018-07-23T19:40:20.710Z,4.40
2018-07-23T19:42:51.213Z,4.20
2018-07-23T19:45:21.467Z,4.97
2018-07-23T19:47:51.615Z,4.03
2018-07-23T19:50:21.143Z,3.87
2018-07-23T19:52:50.685Z,4.77
2018-07-23T19:55:21.357Z,4.20
2018-07-23T19:57:52.156Z,5.20
2018-07-23T20:00:22.131Z,3.70
2018-07-23T20:02:52.349Z,4.43
2018-07-23T20:05:22.680Z,3.90
2018-07-23T20:07:52.723Z,4.73
2018-07-23T20:10:22.543Z,4.07
2018-07-23T20:12:54.271Z,3.93
2018-07-23T20:15:24.085Z,3.47
2018-07-23T20:17:53.973Z,4.40
2018-07-23T20:20:24.085Z,4.27
2018-07-23T20:22:54.017Z,4.20
2018-07-23T20:25:23.943Z,4.30
2018-07-23T20:27:54.253Z,3.10
2018-07-23T20:30:24.126Z,4.10
2018-07-23T20:32:54.085Z,4.10
2018-07-23T20:35:24.207Z,4.43
2018-07-23T20:37:54.402Z,4.17
2018-07-23T20:40:26.791Z,3.63
2018-07-23T20:42:57.046Z,3.90
2018-07-23T20:45:27.442Z,4.97
2018-07-23T20:47:57.073Z,4.40
2018-07-23T20:50:27.755Z,4.50
2018-07-23T20:52:58.230Z,4.80
2018-07-23T20:55:27.823Z,4.53
2018-07-23T20:57:57.371Z,4.30
2018-07-23T21:00:27.111Z,4.30
2018-07-23T21:02:56.325Z,4.17
2018-07-23T21:05:25.619Z,5.13
2018-07-23T21:07:55.095Z,5.27
2018-07-23T21:10:24.599Z,4.17
2018-07-23T21:12:55.301Z,5.30
2018-07-23T21:15:24.713Z,4.43
2018-07-23T21:17:54.292Z,10.63
2018-07-23T21:20:23.746Z,5.87
2018-07-23T21:22:54.280Z,4.80
2018-07-23T21:25:23.754Z,7.00
2018-07-23T21:27:53.131Z,4.73
2018-07-23T21:30:23.092Z,5.40
2018-07-23T21:32:52.756Z,5.47
2018-07-23T21:35:23.534Z,6.93
2018-07-23T21:37:53.021Z,6.10
2018-07-23T21:40:22.401Z,6.17
2018-07-23T21:42:51.803Z,6.37
2018-07-23T21:45:21.588Z,8.30
2018-07-23T21:47:51.188Z,6.27
2018-07-23T21:50:21.525Z,5.87
2018-07-23T21:52:51.773Z,6.20
2018-07-23T21:55:21.720Z,6.33
2018-07-23T21:57:53.002Z,6.40
2018-07-23T22:00:23.339Z,7.23
2018-07-23T22:02:52.793Z,7.20
2018-07-23T22:05:22.557Z,7.30
2018-07-23T22:07:51.995Z,6.63
2018-07-23T22:10:21.480Z,6.93
2018-07-23T22:12:51.172Z,7.37
2018-07-23T22:15:20.708Z,7.60
2018-07-23T22:17:50.396Z,7.03
2018-07-23T22:20:19.993Z,7.33
2018-07-23T22:22:49.542Z,7.43
2018-07-23T22:25:19.104Z,7.80
2018-07-23T22:27:50.382Z,7.63
2018-07-23T22:30:20.086Z,8.57
2018-07-23T22:32:49.918Z,8.10
2018-07-23T22:35:19.544Z,7.87
2018-07-23T22:37:51.284Z,7.90
2018-07-23T22:40:21.132Z,8.27
2018-07-23T22:42:50.664Z,9.50
2018-07-23T22:45:20.152Z,8.90
2018-07-23T22:47:49.862Z,8.33
2018-07-23T22:50:22.163Z,8.77
2018-07-23T22:52:52.213Z,8.70
2018-07-23T22:55:21.672Z,9.10
2018-07-23T22:57:51.372Z,8.57
2018-07-23T23:00:21.733Z,8.47
2018-07-23T23:02:51.629Z,9.60
2018-07-23T23:05:21.275Z,9.90
2018-07-23T23:07:51.025Z,8.17
2018-07-23T23:10:20.823Z,10.30
2018-07-23T23:12:50.439Z,9.97
2018-07-23T23:15:20.597Z,8.03
2018-07-23T23:17:50.061Z,7.50
2018-07-23T23:20:19.709Z,7.53
2018-07-23T23:22:49.273Z,8.13
2018-07-23T23:25:18.819Z,7.50
2018-07-23T23:27:48.489Z,8.50
2018-07-23T23:30:18.491Z,8.80
2018-07-23T23:32:48.416Z,8.27
2018-07-23T23:35:18.190Z,8.13
2018-07-23T23:37:48.783Z,7.83
2018-07-23T23:40:18.651Z,8.13
2018-07-23T23:42:48.477Z,7.33
2018-07-23T23:45:18.227Z,8.50
2018-07-23T23:47:47.984Z,7.63
2018-07-23T23:50:17.551Z,8.67
2018-07-23T23:52:47.307Z,8.53
2018-07-23T23:55:17.222Z,7.90
2018-07-23T23:57:47.141Z,9.10
